Terminal Aerodrome Forecast
Issued by NWS Brownsville, TX

Home | Current Version | Previous Version | Text Only | Print | Product List | Glossary On
Versions: 1 2 3 4 5 6 7 8 9 10 11 12
000
FTUS44 KBRO 032329
TAFMFE
TAF
KMFE 032329Z 0400/0424 13017G22KT P6SM FEW060
     FM040200 14012KT P6SM SKC
     FM040600 14007KT P6SM SKC
     FM041500 16013G19KT P6SM SCT050
     FM042100 13018G25KT P6SM SKC=

USA.gov is the U.S. government's official web portal to all federal, state and local government web resources and services.